Time;durP1;ratioP1;P1;durP2;ratioP2;P2;SDS_P1;SDS_P2;PMS_P1;PMS_P2;Temp;Humidity;BMP_temperature;BMP_pressure;BME280_temperature;BME280_humidity;BME280_pressure;Samples;Min_cycle;Max_cycle;Signal;HPM_P1;HPM_P2
2021/08/31 00:00:09;;;;;;;21.05;10.82;;;;;;;24.48;42.73;100016.48;1775557;80;20884;-73
2021/08/31 00:02:36;;;;;;;21.42;10.38;;;;;;;24.46;42.71;100015.33;1775187;80;21958;-72
2021/08/31 00:05:04;;;;;;;17.27;10.32;;;;;;;24.45;42.72;100016.86;1775385;80;20948;-72
2021/08/31 00:07:32;;;;;;;23.18;10.48;;;;;;;24.44;42.76;100017.38;1775214;80;20991;-72
2021/08/31 00:10:00;;;;;;;19.20;11.00;;;;;;;24.43;42.86;100016.22;1775011;80;21026;-73
2021/08/31 00:12:28;;;;;;;21.62;10.75;;;;;;;24.41;42.79;100010.56;1775100;80;20924;-75
2021/08/31 00:14:57;;;;;;;19.50;11.05;;;;;;;24.40;42.86;100014.77;1775207;80;20920;-73
2021/08/31 00:17:24;;;;;;;27.90;11.60;;;;;;;24.38;43.00;100011.45;1775070;80;21504;-71
2021/08/31 00:19:52;;;;;;;27.32;11.48;;;;;;;24.37;43.15;100007.95;1775189;80;20924;-72
2021/08/31 00:22:19;;;;;;;17.80;10.50;;;;;;;24.35;42.90;100010.52;1775101;80;21453;-72
2021/08/31 00:24:46;;;;;;;18.87;9.85;;;;;;;24.33;43.07;100007.20;1775144;80;20955;-72
2021/08/31 00:27:13;;;;;;;18.48;10.55;;;;;;;24.32;43.23;100001.52;1775137;80;21122;-73
2021/08/31 00:29:41;;;;;;;17.02;10.63;;;;;;;24.29;43.13;100000.06;1775138;80;21397;-72
2021/08/31 00:32:08;;;;;;;22.85;12.35;;;;;;;24.27;43.21;99991.91;1775154;80;21007;-71
2021/08/31 00:34:35;;;;;;;21.85;10.95;;;;;;;24.26;43.36;99998.31;1775165;80;20917;-72
2021/08/31 00:37:04;;;;;;;21.17;11.50;;;;;;;24.23;43.25;99991.98;1775306;80;20979;-72
2021/08/31 00:39:31;;;;;;;26.75;12.07;;;;;;;24.20;44.22;99995.89;1775038;80;21366;-72
2021/08/31 00:41:59;;;;;;;21.97;10.72;;;;;;;24.17;44.00;99991.75;1781567;80;20911;-72
2021/08/31 00:44:29;;;;;;;18.07;11.90;;;;;;;24.14;43.71;99985.43;1783528;80;20908;-72
2021/08/31 00:46:59;;;;;;;20.65;11.38;;;;;;;24.09;43.62;99985.20;1783944;80;21449;-72
2021/08/31 00:49:26;;;;;;;28.73;10.93;;;;;;;24.06;43.64;99989.62;1783551;80;21429;-71
2021/08/31 00:51:56;;;;;;;17.07;10.90;;;;;;;24.03;43.55;99991.33;1783399;80;21577;-72
2021/08/31 00:54:24;;;;;;;23.83;11.57;;;;;;;24.00;43.82;99993.89;1783491;80;20885;-71
2021/08/31 00:56:54;;;;;;;20.95;10.58;;;;;;;23.97;43.62;99993.48;1783706;80;20896;-72
2021/08/31 00:59:21;;;;;;;22.85;11.95;;;;;;;23.94;44.34;99991.17;1783433;80;20904;-72
2021/08/31 01:01:49;;;;;;;16.77;11.57;;;;;;;23.91;44.68;99995.07;1783642;80;21359;-71
2021/08/31 01:04:19;;;;;;;21.02;12.63;;;;;;;23.87;47.75;99994.31;1783545;80;21820;-71
2021/08/31 01:06:52;;;;;;;25.57;11.73;;;;;;;23.81;48.79;100003.94;1783332;80;20995;-71
2021/08/31 01:09:21;;;;;;;25.35;12.03;;;;;;;23.74;50.46;100009.20;1783477;80;21331;-73
2021/08/31 01:11:51;;;;;;;28.20;12.37;;;;;;;23.64;50.09;100002.03;1783458;80;21373;-72
2021/08/31 01:14:19;;;;;;;25.88;12.70;;;;;;;23.54;52.06;100005.05;1783572;80;21370;-72
2021/08/31 01:16:47;;;;;;;18.17;12.15;;;;;;;23.44;53.07;100004.52;1783690;80;21094;-72
2021/08/31 01:19:15;;;;;;;18.77;12.45;;;;;;;23.34;53.95;100009.35;1783636;80;20964;-73
2021/08/31 01:21:42;;;;;;;20.20;12.30;;;;;;;23.21;54.45;100004.72;1783380;80;20904;-72
2021/08/31 01:24:09;;;;;;;18.92;12.18;;;;;;;23.09;54.83;100004.88;1783379;80;21421;-72
2021/08/31 01:26:36;;;;;;;20.80;11.45;;;;;;;22.97;55.24;100000.50;1783463;80;21421;-72
2021/08/31 01:29:04;;;;;;;20.75;10.82;;;;;;;22.86;55.66;99999.14;1783683;80;21436;-73
2021/08/31 01:31:31;;;;;;;21.50;10.82;;;;;;;22.76;56.00;99994.58;1783568;80;20880;-72
2021/08/31 01:33:59;;;;;;;24.65;11.90;;;;;;;22.69;56.33;99998.51;1783608;80;20900;-73
2021/08/31 01:36:26;;;;;;;16.93;10.72;;;;;;;22.65;56.90;99996.39;1783493;80;20960;-72
2021/08/31 01:38:55;;;;;;;19.45;10.72;;;;;;;22.60;56.97;100002.81;1783497;80;21010;-72
2021/08/31 01:41:23;;;;;;;23.22;11.33;;;;;;;22.55;55.47;99994.02;1782389;80;21128;-73
2021/08/31 01:43:51;;;;;;;22.80;10.65;;;;;;;22.54;54.35;99987.85;1783702;80;20881;-72
2021/08/31 01:46:18;;;;;;;19.35;11.68;;;;;;;22.56;51.15;99988.47;1783806;80;20912;-71
2021/08/31 01:48:46;;;;;;;25.70;12.20;;;;;;;22.61;50.06;99988.42;1783829;80;20958;-72
2021/08/31 01:51:13;;;;;;;15.45;11.10;;;;;;;22.66;52.69;99988.20;1783775;80;20912;-72
2021/08/31 01:53:40;;;;;;;16.23;10.85;;;;;;;22.71;54.30;99995.14;1783828;80;21145;-72
2021/08/31 01:56:07;;;;;;;17.77;10.98;;;;;;;22.72;54.42;99991.95;1783820;80;20927;-72
2021/08/31 01:58:34;;;;;;;19.45;13.10;;;;;;;22.71;49.75;99983.63;1783871;80;21369;-73
2021/08/31 02:01:02;;;;;;;20.23;12.07;;;;;;;22.75;54.04;99995.61;1783874;80;20896;-73
2021/08/31 02:03:30;;;;;;;25.40;13.35;;;;;;;22.75;55.41;99995.61;1783750;80;21418;-72
2021/08/31 02:05:57;;;;;;;19.92;12.53;;;;;;;22.71;56.29;99997.81;1783885;80;21525;-71
2021/08/31 02:08:25;;;;;;;16.87;12.80;;;;;;;22.65;56.91;99993.72;1782090;80;21389;-70
2021/08/31 02:10:53;;;;;;;20.50;11.90;;;;;;;22.59;57.41;99986.44;1781491;80;21437;-70
2021/08/31 02:13:20;;;;;;;22.52;10.28;;;;;;;22.51;57.00;99978.03;1781601;80;21445;-71
2021/08/31 02:15:48;;;;;;;18.05;11.18;;;;;;;22.45;54.64;99977.42;1781573;80;21302;-71
2021/08/31 02:18:15;;;;;;;18.80;11.08;;;;;;;22.42;52.35;99971.95;1781639;80;21757;-71
2021/08/31 02:20:44;;;;;;;23.18;11.97;;;;;;;22.44;53.48;99970.44;1781451;80;21417;-71
2021/08/31 02:23:11;;;;;;;19.00;10.98;;;;;;;22.44;53.04;99970.44;1781603;80;21409;-71
2021/08/31 02:25:39;;;;;;;26.20;12.07;;;;;;;22.44;50.32;99968.59;1781528;79;21517;-72
2021/08/31 02:28:06;;;;;;;24.92;12.53;;;;;;;22.48;53.71;99978.41;1781732;80;20943;-72
2021/08/31 02:30:34;;;;;;;18.00;10.43;;;;;;;22.50;55.60;99977.69;1781611;79;21496;-73
2021/08/31 02:33:02;;;;;;;20.12;12.40;;;;;;;22.47;56.40;99982.08;1781584;80;21362;-72
2021/08/31 02:35:30;;;;;;;17.67;11.08;;;;;;;22.44;56.38;99981.13;1781534;80;21394;-72
2021/08/31 02:37:57;;;;;;;19.32;11.85;;;;;;;22.39;56.53;99991.52;1781598;80;20954;-72
2021/08/31 02:40:25;;;;;;;19.52;11.83;;;;;;;22.34;56.81;99994.27;1781670;80;20966;-71
2021/08/31 02:42:52;;;;;;;22.60;12.00;;;;;;;22.28;57.02;99994.17;1774042;80;21129;-72
2021/08/31 02:45:20;;;;;;;17.60;10.28;;;;;;;22.24;55.45;99996.88;1772660;81;20888;-71
2021/08/31 02:47:48;;;;;;;19.42;10.48;;;;;;;22.20;55.25;99997.70;1772874;80;21489;-71
2021/08/31 02:50:15;;;;;;;17.42;11.38;;;;;;;22.20;55.85;100001.71;1772798;80;20947;-71
2021/08/31 02:52:44;;;;;;;23.40;11.50;;;;;;;22.19;56.94;100006.75;1772875;79;21341;-71
2021/08/31 02:55:12;;;;;;;26.20;11.93;;;;;;;22.18;58.12;100003.73;1772738;80;21401;-72
2021/08/31 02:57:40;;;;;;;21.75;11.50;;;;;;;22.17;58.74;100006.09;1772899;81;20844;-74
2021/08/31 03:00:09;;;;;;;15.85;10.88;;;;;;;22.15;58.87;100011.61;1772806;79;21088;-72
2021/08/31 03:02:37;;;;;;;20.12;11.95;;;;;;;22.12;58.89;100007.13;1773180;80;20971;-72
2021/08/31 03:05:05;;;;;;;19.60;11.43;;;;;;;22.08;59.21;100004.53;1773026;79;21384;-73
2021/08/31 03:07:32;;;;;;;23.12;12.45;;;;;;;22.05;58.66;100004.88;1772824;81;21123;-72
2021/08/31 03:10:00;;;;;;;26.68;13.90;;;;;;;22.02;59.26;99993.23;1772916;80;21369;-72
2021/08/31 03:12:27;;;;;;;16.27;12.00;;;;;;;21.99;59.26;100000.25;1772875;80;20935;-72
2021/08/31 03:14:57;;;;;;;19.73;12.45;;;;;;;21.97;59.42;100002.30;1772867;80;21452;-73
2021/08/31 03:17:25;;;;;;;19.65;12.65;;;;;;;21.92;59.48;99996.14;1772929;81;21450;-73
2021/08/31 03:19:53;;;;;;;27.20;13.95;;;;;;;21.91;59.61;99999.32;1772825;80;21449;-74
2021/08/31 03:22:21;;;;;;;18.95;13.13;;;;;;;21.87;59.31;99994.02;1772827;80;21366;-72
2021/08/31 03:24:48;;;;;;;20.45;12.80;;;;;;;21.84;59.42;99991.72;1772767;80;21373;-73
2021/08/31 03:27:16;;;;;;;22.42;10.80;;;;;;;21.84;59.02;99992.23;1772865;80;20896;-73
2021/08/31 03:29:43;;;;;;;25.75;11.43;;;;;;;21.82;58.42;99987.06;1772853;81;21405;-73
2021/08/31 03:32:10;;;;;;;23.30;10.98;;;;;;;21.81;57.69;99989.42;1772630;80;21433;-72
2021/08/31 03:34:38;;;;;;;21.20;12.37;;;;;;;21.81;57.98;99988.57;1772673;80;21350;-72
2021/08/31 03:37:06;;;;;;;20.62;12.75;;;;;;;21.81;57.51;99989.91;1772784;81;21345;-72
2021/08/31 03:39:36;;;;;;;22.87;12.28;;;;;;;21.82;57.17;99988.40;1772726;81;21024;-72
2021/08/31 03:42:04;;;;;;;23.62;12.50;;;;;;;21.83;57.32;99998.56;1770788;80;20885;-73
2021/08/31 03:44:32;;;;;;;30.77;12.75;;;;;;;21.85;57.25;99997.38;1768505;81;21370;-73
2021/08/31 03:46:59;;;;;;;24.95;12.53;;;;;;;21.87;57.14;99992.69;1768400;81;21415;-72
2021/08/31 03:49:26;;;;;;;20.90;13.18;;;;;;;21.92;55.87;99996.14;1726742;82;20933;-72
2021/08/31 03:51:55;;;;;;;24.92;12.95;;;;;;;21.99;57.97;100000.25;1768320;80;20928;-74
2021/08/31 03:54:22;;;;;;;20.32;12.98;;;;;;;22.04;58.27;100000.55;1768420;81;21392;-73
2021/08/31 03:56:50;;;;;;;17.82;11.20;;;;;;;22.07;58.34;100001.00;1768442;81;21345;-73
2021/08/31 03:59:17;;;;;;;14.47;11.10;;;;;;;22.11;55.28;100010.31;1768240;81;21464;-73
2021/08/31 04:01:44;;;;;;;24.07;11.55;;;;;;;22.19;55.39;100000.55;1768285;81;20971;-73
2021/08/31 04:04:12;;;;;;;21.33;12.03;;;;;;;22.27;56.36;100004.52;1768393;81;21370;-73
2021/08/31 04:06:39;;;;;;;21.93;11.88;;;;;;;22.35;57.11;100001.25;1768446;81;21066;-73
2021/08/31 04:09:07;;;;;;;23.92;11.65;;;;;;;22.43;56.83;99998.16;1726697;83;21450;-74
2021/08/31 04:11:34;;;;;;;23.22;12.28;;;;;;;22.50;54.55;100003.08;1768351;80;20940;-73
2021/08/31 04:14:01;;;;;;;18.52;12.88;;;;;;;22.59;56.18;100009.16;1768448;81;20865;-83
2021/08/31 04:16:29;;;;;;;22.52;12.05;;;;;;;22.67;56.20;100010.41;1768491;81;21362;-83
2021/08/31 04:18:59;;;;;;;20.97;10.85;;;;;;;22.73;56.74;100016.35;1702133;83;20944;-83
2021/08/31 04:21:26;;;;;;;30.65;12.05;;;;;;;22.79;56.60;100025.45;1768761;80;21446;-82
2021/08/31 04:23:54;;;;;;;22.62;11.80;;;;;;;22.84;56.61;100028.42;1726890;83;21461;-85
2021/08/31 04:26:21;;;;;;;23.05;11.70;;;;;;;22.87;56.69;100033.37;1768560;80;20907;-85
2021/08/31 04:28:48;;;;;;;18.30;12.20;;;;;;;22.89;56.56;100030.02;1768401;81;20853;-86
2021/08/31 04:31:18;;;;;;;22.10;11.68;;;;;;;22.91;56.56;100034.67;1768744;81;20967;-84
2021/08/31 04:33:46;;;;;;;22.30;11.60;;;;;;;22.92;56.99;100032.30;1726686;83;21505;-82
2021/08/31 04:36:13;;;;;;;21.87;11.97;;;;;;;22.94;56.85;100031.61;1768634;81;21335;-84
2021/08/31 04:38:41;;;;;;;21.93;12.90;;;;;;;22.95;57.19;100027.94;1768689;81;20837;-86
2021/08/31 04:41:11;;;;;;;22.87;12.45;;;;;;;22.96;57.06;100030.92;1768155;81;20885;-85
2021/08/31 04:43:39;;;;;;;22.17;12.75;;;;;;;23.02;56.57;100028.87;1772393;80;21498;-84
2021/08/31 04:46:06;;;;;;;24.67;13.40;;;;;;;23.07;56.75;100029.12;1772723;81;21112;-85
2021/08/31 04:48:34;;;;;;;20.15;11.93;;;;;;;23.14;57.11;100027.38;1772611;81;21220;-82
2021/08/31 04:51:00;;;;;;;25.57;11.95;;;;;;;23.24;56.88;100035.09;1773015;81;20884;-75
2021/08/31 04:53:27;;;;;;;29.87;12.13;;;;;;;23.45;55.97;100029.43;1772622;81;21070;-75
2021/08/31 04:55:54;;;;;;;27.27;13.48;;;;;;;23.70;55.94;100025.84;1773008;81;21010;-76
2021/08/31 04:58:21;;;;;;;25.80;13.18;;;;;;;23.89;55.81;100033.78;1772594;80;21515;-77
2021/08/31 05:00:48;;;;;;;26.87;13.65;;;;;;;24.00;55.19;100025.22;1773223;81;21435;-76
2021/08/31 05:03:17;;;;;;;23.92;13.40;;;;;;;24.09;55.07;100026.72;1772959;81;20876;-77
2021/08/31 05:05:45;;;;;;;23.02;13.22;;;;;;;24.18;55.44;100026.06;1772808;79;21393;-76
2021/08/31 05:08:12;;;;;;;29.10;14.58;;;;;;;24.27;56.07;100030.77;1772850;81;20912;-79
2021/08/31 05:10:40;;;;;;;28.40;14.28;;;;;;;24.35;55.51;100038.14;1772912;80;21362;-79
2021/08/31 05:13:08;;;;;;;32.75;14.35;;;;;;;24.49;55.45;100035.58;1772780;81;20857;-77
2021/08/31 05:15:37;;;;;;;27.55;14.25;;;;;;;24.68;56.18;100040.72;1772902;79;20892;-78
2021/08/31 05:18:04;;;;;;;26.57;13.93;;;;;;;24.84;55.27;100048.45;1772825;81;21022;-76
2021/08/31 05:20:32;;;;;;;24.87;13.83;;;;;;;24.96;54.48;100049.52;1772814;81;20916;-76
2021/08/31 05:23:00;;;;;;;33.50;15.28;;;;;;;25.06;55.23;100050.98;1772955;79;21098;-71
2021/08/31 05:25:27;;;;;;;23.87;14.13;;;;;;;25.12;54.98;100047.52;1751838;81;20967;-74
2021/08/31 05:27:55;;;;;;;40.85;15.55;;;;;;;25.20;54.58;100042.00;1773028;80;21097;-71
2021/08/31 05:30:22;;;;;;;27.77;14.53;;;;;;;25.36;53.84;100045.65;1772842;80;20939;-72
2021/08/31 05:32:49;;;;;;;22.50;13.90;;;;;;;25.73;53.12;100039.94;1772664;81;20877;-72
2021/08/31 05:35:16;;;;;;;27.15;14.13;;;;;;;26.22;51.86;100052.16;1773218;81;22000;-71
2021/08/31 05:37:43;;;;;;;39.38;14.73;;;;;;;26.79;50.66;100053.80;1772717;81;20853;-71
2021/08/31 05:40:11;;;;;;;29.07;14.55;;;;;;;27.35;50.06;100051.83;1773048;79;20864;-72
2021/08/31 05:42:37;;;;;;;23.02;13.72;;;;;;;27.93;49.01;100057.56;1770927;80;21291;-73
2021/08/31 05:45:06;;;;;;;21.68;13.58;;;;;;;28.46;47.92;100053.55;1768534;81;20959;-72
2021/08/31 05:47:33;;;;;;;26.42;14.35;;;;;;;28.77;46.57;100043.67;1768462;81;21125;-73
2021/08/31 05:50:00;;;;;;;25.88;15.28;;;;;;;28.92;45.93;100048.97;1768587;81;20927;-73
2021/08/31 05:52:28;;;;;;;24.80;13.60;;;;;;;29.01;45.80;100045.98;1768515;81;20904;-70
2021/08/31 05:54:55;;;;;;;31.85;14.75;;;;;;;29.23;45.59;100039.59;1768222;81;20881;-70
2021/08/31 05:57:21;;;;;;;24.27;15.25;;;;;;;29.43;45.43;100048.22;1766964;81;20944;-69
2021/08/31 05:59:48;;;;;;;26.55;15.32;;;;;;;29.54;44.91;100050.67;1767241;81;21071;-71
2021/08/31 06:02:17;;;;;;;29.75;17.80;;;;;;;29.60;44.86;100052.45;1768299;81;21128;-70
2021/08/31 06:04:43;;;;;;;29.67;17.25;;;;;;;29.72;45.07;100057.37;1726771;83;21028;-71
2021/08/31 06:07:11;;;;;;;30.02;19.77;;;;;;;30.02;44.38;100059.73;1768582;80;20904;-71
2021/08/31 06:09:40;;;;;;;41.10;24.43;;;;;;;30.40;43.26;100064.70;1768406;81;20836;-69
2021/08/31 06:12:11;;;;;;;41.92;26.75;;;;;;;30.79;42.25;100058.20;1727074;83;21481;-70
2021/08/31 06:14:40;;;;;;;50.10;29.55;;;;;;;31.16;41.24;100061.95;1768563;80;20877;-70
2021/08/31 06:17:07;;;;;;;43.05;25.95;;;;;;;31.56;40.07;100058.38;1768699;81;20896;-70
2021/08/31 06:19:35;;;;;;;42.13;27.58;;;;;;;31.84;39.36;100060.21;1768427;81;21468;-70
2021/08/31 06:22:02;;;;;;;41.35;23.27;;;;;;;32.06;38.80;100071.69;1768520;81;20932;-69
2021/08/31 06:24:29;;;;;;;28.52;21.37;;;;;;;32.24;38.54;100074.16;1726747;83;21138;-71
2021/08/31 06:26:55;;;;;;;34.50;22.70;;;;;;;32.30;38.48;100075.84;1768609;81;20916;-72
2021/08/31 06:29:22;;;;;;;37.70;21.70;;;;;;;32.37;38.41;100081.10;1768410;81;21402;-71
2021/08/31 06:31:49;;;;;;;29.52;20.90;;;;;;;32.47;38.18;100075.83;1768438;81;20924;-71
2021/08/31 06:34:16;;;;;;;34.20;23.18;;;;;;;32.65;37.89;100078.00;1726758;83;20995;-71
2021/08/31 06:36:43;;;;;;;37.78;24.23;;;;;;;32.80;37.65;100076.30;1768864;81;21554;-71
2021/08/31 06:39:10;;;;;;;35.58;23.87;;;;;;;32.99;37.43;100075.97;1768395;81;21497;-71
2021/08/31 06:41:37;;;;;;;32.78;22.73;;;;;;;33.16;37.50;100080.81;1768486;81;21417;-71
2021/08/31 06:44:04;;;;;;;42.27;24.43;;;;;;;33.38;37.25;100081.33;1772228;80;20971;-70
2021/08/31 06:46:31;;;;;;;31.12;20.70;;;;;;;33.53;36.90;100082.84;1772528;81;20927;-71
2021/08/31 06:48:58;;;;;;;34.23;19.87;;;;;;;33.70;36.69;100077.84;1772710;81;21108;-70
2021/08/31 06:51:26;;;;;;;25.90;16.12;;;;;;;33.95;36.54;100084.87;1772751;80;20964;-70
2021/08/31 06:53:53;;;;;;;33.63;17.10;;;;;;;34.21;35.89;100085.88;1772755;79;20888;-72
2021/08/31 06:56:21;;;;;;;29.45;15.13;;;;;;;34.39;35.58;100086.53;1772807;80;20964;-74
2021/08/31 06:58:48;;;;;;;29.82;16.67;;;;;;;34.57;35.56;100083.36;1773040;81;20971;-70
2021/08/31 07:01:17;;;;;;;23.92;14.25;;;;;;;34.80;35.30;100084.87;1772677;81;21047;-70
2021/08/31 07:03:44;;;;;;;20.80;14.10;;;;;;;35.07;35.28;100085.25;1772628;81;21362;-72
2021/08/31 07:06:11;;;;;;;22.13;13.65;;;;;;;35.25;35.22;100097.05;1772861;81;20873;-71
2021/08/31 07:08:38;;;;;;;17.80;14.47;;;;;;;35.40;34.98;100090.81;1773043;81;20881;-71
2021/08/31 07:11:05;;;;;;;21.62;13.10;;;;;;;35.60;34.71;100091.39;1772919;80;21393;-70
2021/08/31 07:13:33;;;;;;;19.20;12.53;;;;;;;35.82;34.79;100100.70;1772653;80;20915;-71
2021/08/31 07:16:00;;;;;;;16.45;12.43;;;;;;;36.02;35.17;100102.61;1772811;81;21319;-72
2021/08/31 07:18:29;;;;;;;16.23;11.43;;;;;;;36.22;35.06;100094.14;1772878;79;20880;-71
2021/08/31 07:20:56;;;;;;;17.75;11.73;;;;;;;36.37;34.17;100108.32;1773015;81;20964;-70
2021/08/31 07:23:23;;;;;;;14.18;11.08;;;;;;;36.43;34.13;100101.20;1772996;80;20932;-70
2021/08/31 07:25:50;;;;;;;13.43;11.55;;;;;;;36.54;34.73;100098.45;1772925;79;21600;-70
2021/08/31 07:28:17;;;;;;;12.53;11.20;;;;;;;36.70;34.78;100105.52;1773003;81;20955;-71
2021/08/31 07:30:44;;;;;;;14.68;10.55;;;;;;;36.82;34.66;100105.20;1772987;79;20987;-72
2021/08/31 07:33:11;;;;;;;10.75;9.75;;;;;;;36.93;34.53;100106.27;1772711;80;20893;-72
2021/08/31 07:35:38;;;;;;;11.22;9.73;;;;;;;37.00;34.55;100107.33;1772945;79;20872;-69
2021/08/31 07:38:05;;;;;;;12.10;9.65;;;;;;;37.06;34.64;100105.37;1772819;79;21108;-71
2021/08/31 07:40:33;;;;;;;13.70;9.30;;;;;;;37.19;34.56;100108.08;1772688;80;21370;-71
2021/08/31 07:43:00;;;;;;;14.18;9.98;;;;;;;37.18;34.10;100107.82;1774578;80;20903;-70
2021/08/31 07:45:27;;;;;;;13.55;9.65;;;;;;;37.15;33.93;100115.20;1778535;79;21374;-70
2021/08/31 07:47:54;;;;;;;14.73;9.28;;;;;;;37.04;33.96;100115.77;1778393;80;21002;-73
2021/08/31 07:50:21;;;;;;;12.03;9.43;;;;;;;36.94;34.63;100109.80;1778497;80;21083;-71
2021/08/31 07:52:49;;;;;;;10.70;9.23;;;;;;;36.94;34.95;100111.17;1778336;80;20915;-72
2021/08/31 07:55:16;;;;;;;11.03;10.00;;;;;;;37.05;34.87;100111.39;1778560;80;21468;-73
2021/08/31 07:57:43;;;;;;;11.88;8.20;;;;;;;37.10;34.64;100113.31;1778594;80;20951;-72
2021/08/31 08:00:13;;;;;;;14.93;9.78;;;;;;;37.01;34.54;100113.05;1778449;80;20915;-70
2021/08/31 08:02:40;;;;;;;9.50;8.60;;;;;;;36.98;34.67;100122.37;1778413;79;21137;-72
2021/08/31 08:05:10;;;;;;;11.30;8.80;;;;;;;37.01;34.71;100118.52;1778344;80;20947;-70
2021/08/31 08:07:37;;;;;;;11.35;9.88;;;;;;;37.12;34.34;100122.86;1778381;80;20955;-71
2021/08/31 08:10:06;;;;;;;20.30;10.18;;;;;;;37.28;34.02;100114.02;1778561;79;20995;-73
2021/08/31 08:12:32;;;;;;;13.08;9.08;;;;;;;37.46;33.87;100122.11;1738885;82;21381;-70
2021/08/31 08:14:59;;;;;;;15.43;10.30;;;;;;;37.42;33.99;100115.61;1738858;81;21057;-71
2021/08/31 08:17:26;;;;;;;13.45;9.45;;;;;;;37.41;33.75;100113.95;1722770;83;21522;-69
2021/08/31 08:19:53;;;;;;;10.20;9.20;;;;;;;37.39;33.89;100113.41;1738839;82;20889;-70
2021/08/31 08:22:20;;;;;;;15.68;10.60;;;;;;;37.19;34.03;100116.28;1738870;82;20948;-69
2021/08/31 08:24:47;;;;;;;9.45;8.65;;;;;;;37.01;33.64;100113.05;1739034;82;20999;-69
2021/08/31 08:27:15;;;;;;;10.78;9.53;;;;;;;36.87;34.58;100124.33;1738946;82;21554;-69
2021/08/31 08:29:42;;;;;;;12.58;10.10;;;;;;;36.85;33.68;100121.06;1738676;82;21053;-68
2021/08/31 08:32:10;;;;;;;12.20;9.93;;;;;;;36.66;34.14;100116.21;1778484;79;20986;-69
2021/08/31 08:34:37;;;;;;;11.70;10.70;;;;;;;36.38;34.71;100116.25;1778357;80;20891;-69
2021/08/31 08:37:06;;;;;;;12.70;10.88;;;;;;;36.14;35.41;100116.55;1738827;81;21523;-69
2021/08/31 08:39:33;;;;;;;12.63;11.35;;;;;;;36.00;35.47;100115.72;1723035;83;21155;-69
2021/08/31 08:42:00;;;;;;;16.50;13.65;;;;;;;35.92;35.61;100124.44;1739023;82;20921;-67
2021/08/31 08:44:28;;;;;;;15.23;13.78;;;;;;;35.89;35.78;100124.45;1773670;80;20908;-67
2021/08/31 08:46:55;;;;;;;17.15;14.78;;;;;;;35.90;35.84;100127.44;1772670;80;20959;-67
2021/08/31 08:49:24;;;;;;;20.57;16.95;;;;;;;35.98;36.23;100133.47;1751128;81;20892;-68
2021/08/31 08:51:53;;;;;;;18.37;16.67;;;;;;;36.02;35.57;100125.81;1772702;80;21941;-69
2021/08/31 08:54:20;;;;;;;18.05;16.10;;;;;;;36.07;35.84;100124.44;1772633;81;20872;-67
2021/08/31 08:58:16;;;;;;;20.12;18.32;;;;;;;36.26;35.71;100134.30;1816285;79;22646;-67
2021/08/31 09:00:53;;;;;;;21.05;18.35;;;;;;;36.17;35.88;100139.20;1756108;80;21392;-67
2021/08/31 09:03:21;;;;;;;21.80;19.73;;;;;;;36.23;35.24;100142.20;1789442;80;21561;-69
2021/08/31 09:05:48;;;;;;;26.02;20.57;;;;;;;36.16;35.58;100145.77;1789541;80;21006;-67
2021/08/31 09:08:15;;;;;;;23.35;20.92;;;;;;;36.13;35.77;100148.51;1758922;80;20865;-66
2021/08/31 09:10:45;;;;;;;25.88;23.38;;;;;;;36.21;36.06;100149.86;1789495;80;21072;-68
2021/08/31 09:13:11;;;;;;;26.02;23.18;;;;;;;36.32;35.67;100159.67;1735242;80;20996;-68
2021/08/31 09:15:41;;;;;;;26.00;23.30;;;;;;;36.35;35.39;100165.94;1789856;80;21470;-67
2021/08/31 09:18:16;;;;;;;26.95;24.25;;;;;;;36.31;35.54;100163.52;1789220;80;20903;-67
2021/08/31 09:21:01;;;;;;;27.98;25.12;;;;;;;36.20;35.14;100164.61;1789784;80;21306;-70
2021/08/31 09:23:34;;;;;;;28.40;24.95;;;;;;;36.03;35.31;100168.94;1789597;79;21342;-69
2021/08/31 09:26:09;;;;;;;30.43;27.27;;;;;;;35.87;35.68;100179.84;1788890;80;20990;-69
2021/08/31 09:28:39;;;;;;;31.17;28.02;;;;;;;35.63;36.12;100180.08;1789410;80;21134;-69
2021/08/31 09:31:11;;;;;;;29.45;26.45;;;;;;;35.32;36.33;100185.41;1789616;80;20911;-71
2021/08/31 09:33:47;;;;;;;30.88;27.60;;;;;;;34.83;37.33;100186.52;1789388;80;20943;-68
2021/08/31 09:36:24;;;;;;;32.23;28.98;;;;;;;34.31;38.03;100191.84;1759108;80;20990;-68
2021/08/31 09:39:05;;;;;;;31.40;28.40;;;;;;;33.83;38.81;100190.30;1789368;80;20975;-67
2021/08/31 09:41:45;;;;;;;30.85;27.65;;;;;;;33.20;39.70;100196.64;1789251;80;21741;-68
2021/08/31 09:44:23;;;;;;;32.45;27.82;;;;;;;32.61;41.05;100197.14;1789319;80;21524;-69
2021/08/31 09:47:00;;;;;;;33.15;28.52;;;;;;;32.08;42.29;100204.66;1789292;80;21444;-68
2021/08/31 09:49:31;;;;;;;29.80;26.60;;;;;;;31.59;43.23;100205.11;1788125;80;21214;-68
2021/08/31 09:52:09;;;;;;;29.30;26.10;;;;;;;31.13;44.04;100208.73;1788723;80;20963;-69
2021/08/31 09:54:43;;;;;;;30.88;27.55;;;;;;;30.72;44.94;100211.30;1788374;80;21139;-68
2021/08/31 09:57:38;;;;;;;33.85;29.55;;;;;;;30.35;45.82;100212.05;1786422;80;20939;-69
2021/08/31 10:00:15;;;;;;;36.88;30.12;;;;;;;30.06;46.32;100212.33;1784081;80;20908;-67
2021/08/31 10:02:42;;;;;;;32.40;27.70;;;;;;;29.81;46.75;100216.54;1784056;80;21482;-67
2021/08/31 10:05:09;;;;;;;32.85;26.57;;;;;;;29.70;47.26;100223.03;1784264;80;21504;-69
2021/08/31 10:07:36;;;;;;;28.98;25.55;;;;;;;29.58;47.68;100222.64;1783987;80;21119;-68
2021/08/31 10:10:03;;;;;;;31.73;26.02;;;;;;;29.40;47.94;100222.12;1753031;80;20975;-68
2021/08/31 10:12:30;;;;;;;27.77;24.35;;;;;;;29.21;48.53;100226.69;1783544;80;20936;-68
2021/08/31 10:14:58;;;;;;;31.40;26.12;;;;;;;29.01;49.33;100229.57;1783495;80;21007;-67
2021/08/31 10:17:28;;;;;;;32.20;25.75;;;;;;;28.83;50.09;100231.72;1783590;80;20892;-69
2021/08/31 10:19:59;;;;;;;30.43;26.55;;;;;;;28.68;50.28;100228.84;1783493;80;20915;-67
2021/08/31 10:22:26;;;;;;;27.62;24.05;;;;;;;28.51;50.35;100229.91;1783406;80;20952;-69
2021/08/31 10:24:53;;;;;;;32.23;24.60;;;;;;;28.38;50.73;100243.47;1783535;80;20912;-67
2021/08/31 10:27:32;;;;;;;28.62;24.45;;;;;;;28.20;51.22;100244.21;1783569;80;20991;-69
2021/08/31 10:30:23;;;;;;;27.73;23.70;;;;;;;28.02;51.63;100249.52;1783778;80;20971;-69
2021/08/31 10:32:54;;;;;;;27.42;22.17;;;;;;;27.90;51.94;100249.34;1775644;80;21170;-68
2021/08/31 10:35:46;;;;;;;26.60;23.30;;;;;;;27.79;52.04;100258.08;1783448;80;21464;-70
2021/08/31 10:38:13;;;;;;;24.70;22.10;;;;;;;27.67;52.27;100264.14;1783584;80;20959;-66
2021/08/31 10:40:43;;;;;;;24.43;21.90;;;;;;;27.51;52.72;100263.27;1783618;80;20892;-67
2021/08/31 10:43:13;;;;;;;28.02;20.57;;;;;;;27.43;53.30;100267.01;1783631;80;20900;-69
2021/08/31 10:45:55;;;;;;;26.55;21.42;;;;;;;27.38;53.51;100273.56;1783621;80;21967;-62
2021/08/31 10:48:27;;;;;;;25.37;20.82;;;;;;;27.28;53.50;100272.66;1783732;80;20892;-71
2021/08/31 10:51:02;;;;;;;22.15;19.80;;;;;;;27.21;53.80;100276.39;1783506;80;21430;-69
2021/08/31 10:53:41;;;;;;;24.92;20.90;;;;;;;27.13;54.06;100277.42;1783960;80;21406;-70
2021/08/31 10:56:25;;;;;;;27.58;19.82;;;;;;;27.07;54.48;100277.72;1783605;80;21022;-71
2021/08/31 10:58:59;;;;;;;23.98;18.80;;;;;;;27.03;54.71;100276.48;1783646;80;21740;-73
2021/08/31 11:01:39;;;;;;;23.15;19.30;;;;;;;26.99;54.30;100280.65;1783651;80;21362;-70
2021/08/31 11:04:28;;;;;;;23.42;19.48;;;;;;;26.92;54.15;100277.63;1783489;80;20888;-72
2021/08/31 11:07:04;;;;;;;23.57;20.08;;;;;;;26.87;54.65;100283.11;1783391;80;20928;-70
2021/08/31 11:09:32;;;;;;;24.20;20.17;;;;;;;26.83;54.62;100285.08;1783501;80;20971;-70
2021/08/31 11:12:10;;;;;;;26.07;19.90;;;;;;;26.81;55.07;100293.38;1783439;80;21524;-72
2021/08/31 11:14:50;;;;;;;22.27;19.98;;;;;;;26.79;54.92;100290.07;1783692;80;20979;-69
2021/08/31 11:17:40;;;;;;;23.10;20.57;;;;;;;26.73;54.85;100290.89;1783445;80;20876;-70
2021/08/31 11:20:19;;;;;;;24.02;21.37;;;;;;;26.70;55.14;100295.84;1783457;80;20961;-70